sensor_id;sensor_type;location;lat;lon;timestamp;P1;durP1;ratioP1;P2;durP2;ratioP2
58974;SDS011;44751;52.236;5.178;2022-09-09T00:01:34;2.50;;;1.00;;
58974;SDS011;44751;52.236;5.178;2022-09-09T00:12:53;2.20;;;1.10;;
58974;SDS011;44751;52.236;5.178;2022-09-09T00:15:52;4.90;;;1.48;;
58974;SDS011;44751;52.236;5.178;2022-09-09T00:18:32;2.55;;;1.17;;
58974;SDS011;44751;52.236;5.178;2022-09-09T00:21:14;2.15;;;1.02;;
58974;SDS011;44751;52.236;5.178;2022-09-09T00:23:55;2.63;;;1.27;;
58974;SDS011;44751;52.236;5.178;2022-09-09T00:26:32;4.07;;;1.50;;
58974;SDS011;44751;52.236;5.178;2022-09-09T00:31:33;3.90;;;1.80;;
58974;SDS011;44751;52.236;5.178;2022-09-09T00:34:13;3.63;;;1.52;;
58974;SDS011;44751;52.236;5.178;2022-09-09T00:36:53;3.13;;;1.40;;
58974;SDS011;44751;52.236;5.178;2022-09-09T00:39:59;3.95;;;1.40;;
58974;SDS011;44751;52.236;5.178;2022-09-09T00:45:17;2.72;;;1.80;;
58974;SDS011;44751;52.236;5.178;2022-09-09T00:53:38;4.65;;;1.75;;
58974;SDS011;44751;52.236;5.178;2022-09-09T00:56:27;4.28;;;2.15;;
58974;SDS011;44751;52.236;5.178;2022-09-09T01:01:44;7.30;;;2.30;;
58974;SDS011;44751;52.236;5.178;2022-09-09T01:04:13;3.92;;;2.10;;
58974;SDS011;44751;52.236;5.178;2022-09-09T01:06:54;4.57;;;2.17;;
58974;SDS011;44751;52.236;5.178;2022-09-09T01:15:05;4.32;;;2.40;;
58974;SDS011;44751;52.236;5.178;2022-09-09T01:17:39;2.25;;;2.00;;
58974;SDS011;44751;52.236;5.178;2022-09-09T01:28:54;3.55;;;2.92;;
58974;SDS011;44751;52.236;5.178;2022-09-09T01:31:35;5.35;;;3.08;;
58974;SDS011;44751;52.236;5.178;2022-09-09T01:34:10;4.93;;;3.05;;
58974;SDS011;44751;52.236;5.178;2022-09-09T01:37:13;4.03;;;2.73;;
58974;SDS011;44751;52.236;5.178;2022-09-09T01:39:35;4.38;;;2.78;;
58974;SDS011;44751;52.236;5.178;2022-09-09T01:42:04;5.63;;;3.00;;
58974;SDS011;44751;52.236;5.178;2022-09-09T01:44:33;5.50;;;3.05;;
58974;SDS011;44751;52.236;5.178;2022-09-09T01:47:02;5.80;;;2.90;;
58974;SDS011;44751;52.236;5.178;2022-09-09T01:49:29;4.63;;;2.78;;
58974;SDS011;44751;52.236;5.178;2022-09-09T01:52:04;4.85;;;3.30;;
58974;SDS011;44751;52.236;5.178;2022-09-09T01:54:33;4.90;;;3.28;;
58974;SDS011;44751;52.236;5.178;2022-09-09T01:57:08;4.35;;;3.35;;
58974;SDS011;44751;52.236;5.178;2022-09-09T02:02:46;5.60;;;3.47;;
58974;SDS011;44751;52.236;5.178;2022-09-09T02:13:40;6.95;;;3.58;;
58974;SDS011;44751;52.236;5.178;2022-09-09T02:21:35;5.38;;;3.72;;
58974;SDS011;44751;52.236;5.178;2022-09-09T02:24:03;6.20;;;4.55;;
58974;SDS011;44751;52.236;5.178;2022-09-09T02:26:33;7.45;;;4.00;;
58974;SDS011;44751;52.236;5.178;2022-09-09T02:29:07;7.28;;;4.25;;
58974;SDS011;44751;52.236;5.178;2022-09-09T02:31:38;6.53;;;4.10;;
58974;SDS011;44751;52.236;5.178;2022-09-09T02:34:09;7.63;;;4.40;;
58974;SDS011;44751;52.236;5.178;2022-09-09T02:36:49;7.07;;;4.60;;
58974;SDS011;44751;52.236;5.178;2022-09-09T02:39:19;7.38;;;4.22;;
58974;SDS011;44751;52.236;5.178;2022-09-09T02:41:46;6.93;;;5.25;;
58974;SDS011;44751;52.236;5.178;2022-09-09T02:44:13;6.88;;;4.68;;
58974;SDS011;44751;52.236;5.178;2022-09-09T02:57:58;7.88;;;4.82;;
58974;SDS011;44751;52.236;5.178;2022-09-09T03:00:26;4.97;;;4.22;;
58974;SDS011;44751;52.236;5.178;2022-09-09T03:02:54;6.75;;;4.30;;
58974;SDS011;44751;52.236;5.178;2022-09-09T03:05:23;7.82;;;4.90;;
58974;SDS011;44751;52.236;5.178;2022-09-09T03:07:58;6.80;;;4.93;;
58974;SDS011;44751;52.236;5.178;2022-09-09T03:10:24;5.68;;;4.63;;
58974;SDS011;44751;52.236;5.178;2022-09-09T03:12:51;4.93;;;4.05;;
58974;SDS011;44751;52.236;5.178;2022-09-09T03:15:17;7.55;;;4.80;;
58974;SDS011;44751;52.236;5.178;2022-09-09T03:17:44;8.80;;;4.55;;
58974;SDS011;44751;52.236;5.178;2022-09-09T03:20:11;6.82;;;5.03;;
58974;SDS011;44751;52.236;5.178;2022-09-09T03:22:46;7.57;;;4.53;;
58974;SDS011;44751;52.236;5.178;2022-09-09T03:25:17;9.35;;;4.65;;
58974;SDS011;44751;52.236;5.178;2022-09-09T03:27:43;7.40;;;4.53;;
58974;SDS011;44751;52.236;5.178;2022-09-09T03:30:10;6.00;;;4.60;;
58974;SDS011;44751;52.236;5.178;2022-09-09T03:32:36;6.60;;;4.28;;
58974;SDS011;44751;52.236;5.178;2022-09-09T03:35:03;6.75;;;4.43;;
58974;SDS011;44751;52.236;5.178;2022-09-09T03:37:30;7.50;;;4.45;;
58974;SDS011;44751;52.236;5.178;2022-09-09T03:40:05;5.85;;;4.35;;
58974;SDS011;44751;52.236;5.178;2022-09-09T03:42:33;7.05;;;4.03;;
58974;SDS011;44751;52.236;5.178;2022-09-09T03:45:01;6.55;;;4.28;;
58974;SDS011;44751;52.236;5.178;2022-09-09T03:47:29;6.00;;;4.22;;
58974;SDS011;44751;52.236;5.178;2022-09-09T03:49:55;6.75;;;4.57;;
58974;SDS011;44751;52.236;5.178;2022-09-09T03:52:22;9.45;;;4.43;;
58974;SDS011;44751;52.236;5.178;2022-09-09T03:54:59;6.00;;;4.20;;
58974;SDS011;44751;52.236;5.178;2022-09-09T03:57:28;6.57;;;4.57;;
58974;SDS011;44751;52.236;5.178;2022-09-09T03:59:55;6.53;;;4.47;;
58974;SDS011;44751;52.236;5.178;2022-09-09T04:02:22;7.00;;;4.30;;
58974;SDS011;44751;52.236;5.178;2022-09-09T04:04:49;5.47;;;3.80;;
58974;SDS011;44751;52.236;5.178;2022-09-09T04:07:16;6.50;;;4.22;;
58974;SDS011;44751;52.236;5.178;2022-09-09T04:09:59;7.32;;;4.30;;
58974;SDS011;44751;52.236;5.178;2022-09-09T04:12:26;7.68;;;3.90;;
58974;SDS011;44751;52.236;5.178;2022-09-09T04:14:52;4.95;;;3.85;;
58974;SDS011;44751;52.236;5.178;2022-09-09T04:17:21;6.53;;;4.15;;
58974;SDS011;44751;52.236;5.178;2022-09-09T04:19:48;5.93;;;4.25;;
58974;SDS011;44751;52.236;5.178;2022-09-09T04:22:23;6.93;;;4.07;;
58974;SDS011;44751;52.236;5.178;2022-09-09T04:24:59;6.95;;;4.18;;
58974;SDS011;44751;52.236;5.178;2022-09-09T04:27:25;7.53;;;4.05;;
58974;SDS011;44751;52.236;5.178;2022-09-09T04:29:52;7.97;;;4.38;;
58974;SDS011;44751;52.236;5.178;2022-09-09T04:32:18;6.40;;;4.38;;
58974;SDS011;44751;52.236;5.178;2022-09-09T04:34:46;6.05;;;3.67;;
58974;SDS011;44751;52.236;5.178;2022-09-09T04:37:18;5.15;;;4.25;;
58974;SDS011;44751;52.236;5.178;2022-09-09T04:39:51;7.65;;;4.15;;
58974;SDS011;44751;52.236;5.178;2022-09-09T04:42:17;6.20;;;4.00;;
58974;SDS011;44751;52.236;5.178;2022-09-09T04:44:44;6.72;;;4.05;;
58974;SDS011;44751;52.236;5.178;2022-09-09T04:47:11;6.15;;;3.83;;
58974;SDS011;44751;52.236;5.178;2022-09-09T04:52:38;6.25;;;3.72;;
58974;SDS011;44751;52.236;5.178;2022-09-09T04:55:10;6.37;;;3.70;;
58974;SDS011;44751;52.236;5.178;2022-09-09T04:57:46;6.38;;;3.75;;
58974;SDS011;44751;52.236;5.178;2022-09-09T05:00:13;7.70;;;4.07;;
58974;SDS011;44751;52.236;5.178;2022-09-09T05:02:40;8.90;;;4.28;;
58974;SDS011;44751;52.236;5.178;2022-09-09T05:05:07;5.93;;;3.90;;
58974;SDS011;44751;52.236;5.178;2022-09-09T05:07:38;5.93;;;3.67;;
58974;SDS011;44751;52.236;5.178;2022-09-09T05:10:13;5.60;;;3.60;;
58974;SDS011;44751;52.236;5.178;2022-09-09T05:12:41;6.68;;;3.60;;
58974;SDS011;44751;52.236;5.178;2022-09-09T05:15:08;7.28;;;4.07;;
58974;SDS011;44751;52.236;5.178;2022-09-09T05:17:36;6.28;;;3.30;;
58974;SDS011;44751;52.236;5.178;2022-09-09T05:20:06;5.65;;;3.55;;
58974;SDS011;44751;52.236;5.178;2022-09-09T05:22:39;6.07;;;3.30;;
58974;SDS011;44751;52.236;5.178;2022-09-09T05:25:14;6.20;;;3.67;;
58974;SDS011;44751;52.236;5.178;2022-09-09T05:27:50;5.55;;;3.67;;
58974;SDS011;44751;52.236;5.178;2022-09-09T05:30:18;9.25;;;4.30;;
58974;SDS011;44751;52.236;5.178;2022-09-09T05:32:48;7.63;;;3.60;;
58974;SDS011;44751;52.236;5.178;2022-09-09T05:35:17;6.55;;;3.70;;
58974;SDS011;44751;52.236;5.178;2022-09-09T05:37:49;7.22;;;3.80;;
58974;SDS011;44751;52.236;5.178;2022-09-09T05:40:22;7.97;;;3.85;;
58974;SDS011;44751;52.236;5.178;2022-09-09T05:42:53;5.40;;;3.63;;
58974;SDS011;44751;52.236;5.178;2022-09-09T05:45:19;7.45;;;3.50;;
58974;SDS011;44751;52.236;5.178;2022-09-09T05:47:53;9.35;;;3.80;;
58974;SDS011;44751;52.236;5.178;2022-09-09T05:50:22;6.45;;;3.50;;
58974;SDS011;44751;52.236;5.178;2022-09-09T05:52:49;7.05;;;3.15;;
58974;SDS011;44751;52.236;5.178;2022-09-09T05:55:21;6.55;;;3.40;;
58974;SDS011;44751;52.236;5.178;2022-09-09T05:57:48;7.28;;;3.22;;
58974;SDS011;44751;52.236;5.178;2022-09-09T06:00:35;6.47;;;3.38;;
58974;SDS011;44751;52.236;5.178;2022-09-09T06:03:03;7.00;;;3.53;;
58974;SDS011;44751;52.236;5.178;2022-09-09T06:05:31;7.95;;;3.55;;
58974;SDS011;44751;52.236;5.178;2022-09-09T06:07:59;10.27;;;3.70;;
58974;SDS011;44751;52.236;5.178;2022-09-09T06:10:32;7.78;;;3.58;;
58974;SDS011;44751;52.236;5.178;2022-09-09T06:12:59;8.30;;;3.65;;
58974;SDS011;44751;52.236;5.178;2022-09-09T06:15:28;8.27;;;3.75;;
58974;SDS011;44751;52.236;5.178;2022-09-09T06:20:56;4.88;;;3.13;;
58974;SDS011;44751;52.236;5.178;2022-09-09T06:23:25;6.90;;;3.10;;
58974;SDS011;44751;52.236;5.178;2022-09-09T06:28:37;6.97;;;3.40;;
58974;SDS011;44751;52.236;5.178;2022-09-09T06:31:11;9.13;;;3.17;;
58974;SDS011;44751;52.236;5.178;2022-09-09T06:33:39;8.95;;;3.20;;
58974;SDS011;44751;52.236;5.178;2022-09-09T06:36:15;8.20;;;3.50;;
58974;SDS011;44751;52.236;5.178;2022-09-09T06:38:46;7.85;;;3.63;;
58974;SDS011;44751;52.236;5.178;2022-09-09T06:41:16;7.00;;;3.40;;
58974;SDS011;44751;52.236;5.178;2022-09-09T06:43:52;9.98;;;3.28;;
58974;SDS011;44751;52.236;5.178;2022-09-09T06:46:19;11.45;;;3.25;;
58974;SDS011;44751;52.236;5.178;2022-09-09T06:48:53;8.50;;;3.08;;
58974;SDS011;44751;52.236;5.178;2022-09-09T06:51:22;10.95;;;4.53;;
58974;SDS011;44751;52.236;5.178;2022-09-09T06:53:51;7.82;;;2.80;;
58974;SDS011;44751;52.236;5.178;2022-09-09T06:56:23;13.57;;;3.42;;
58974;SDS011;44751;52.236;5.178;2022-09-09T06:58:55;6.72;;;2.55;;
58974;SDS011;44751;52.236;5.178;2022-09-09T07:01:26;8.50;;;2.58;;
58974;SDS011;44751;52.236;5.178;2022-09-09T07:03:54;10.80;;;2.92;;
58974;SDS011;44751;52.236;5.178;2022-09-09T07:06:24;9.23;;;2.78;;
58974;SDS011;44751;52.236;5.178;2022-09-09T07:08:55;9.27;;;2.60;;
58974;SDS011;44751;52.236;5.178;2022-09-09T07:11:32;7.30;;;2.58;;
58974;SDS011;44751;52.236;5.178;2022-09-09T07:14:00;6.97;;;2.63;;
58974;SDS011;44751;52.236;5.178;2022-09-09T07:16:27;7.15;;;2.28;;
58974;SDS011;44751;52.236;5.178;2022-09-09T07:18:54;9.40;;;2.90;;
58974;SDS011;44751;52.236;5.178;2022-09-09T07:21:23;8.15;;;2.58;;
58974;SDS011;44751;52.236;5.178;2022-09-09T07:23:51;5.85;;;2.08;;
58974;SDS011;44751;52.236;5.178;2022-09-09T07:26:18;10.73;;;2.63;;
58974;SDS011;44751;52.236;5.178;2022-09-09T07:28:47;7.75;;;2.03;;
58974;SDS011;44751;52.236;5.178;2022-09-09T07:31:22;6.40;;;2.42;;
58974;SDS011;44751;52.236;5.178;2022-09-09T07:33:55;10.77;;;2.88;;
58974;SDS011;44751;52.236;5.178;2022-09-09T07:36:26;9.02;;;2.53;;
58974;SDS011;44751;52.236;5.178;2022-09-09T07:38:57;8.60;;;2.50;;
58974;SDS011;44751;52.236;5.178;2022-09-09T07:41:32;10.23;;;3.35;;
58974;SDS011;44751;52.236;5.178;2022-09-09T07:44:10;8.45;;;2.88;;
58974;SDS011;44751;52.236;5.178;2022-09-09T07:46:38;8.98;;;2.58;;
58974;SDS011;44751;52.236;5.178;2022-09-09T07:49:06;9.85;;;2.97;;
58974;SDS011;44751;52.236;5.178;2022-09-09T07:51:34;8.63;;;3.20;;
58974;SDS011;44751;52.236;5.178;2022-09-09T07:54:04;6.72;;;2.55;;
58974;SDS011;44751;52.236;5.178;2022-09-09T07:56:46;6.47;;;2.40;;
58974;SDS011;44751;52.236;5.178;2022-09-09T07:59:14;8.13;;;2.85;;
58974;SDS011;44751;52.236;5.178;2022-09-09T08:01:50;7.55;;;2.42;;
58974;SDS011;44751;52.236;5.178;2022-09-09T08:04:19;7.15;;;2.72;;
58974;SDS011;44751;52.236;5.178;2022-09-09T08:06:48;7.47;;;2.28;;
58974;SDS011;44751;52.236;5.178;2022-09-09T08:09:28;5.50;;;2.55;;
58974;SDS011;44751;52.236;5.178;2022-09-09T08:11:58;8.02;;;2.80;;
58974;SDS011;44751;52.236;5.178;2022-09-09T08:14:47;9.40;;;3.05;;
58974;SDS011;44751;52.236;5.178;2022-09-09T08:17:19;11.40;;;2.65;;
58974;SDS011;44751;52.236;5.178;2022-09-09T08:20:04;7.18;;;2.72;;
58974;SDS011;44751;52.236;5.178;2022-09-09T08:22:31;7.60;;;2.65;;
58974;SDS011;44751;52.236;5.178;2022-09-09T08:24:59;7.60;;;3.08;;
58974;SDS011;44751;52.236;5.178;2022-09-09T08:30:13;7.75;;;3.00;;
58974;SDS011;44751;52.236;5.178;2022-09-09T08:32:43;8.35;;;3.03;;
58974;SDS011;44751;52.236;5.178;2022-09-09T08:35:10;10.40;;;2.97;;
58974;SDS011;44751;52.236;5.178;2022-09-09T08:37:38;5.78;;;2.38;;
58974;SDS011;44751;52.236;5.178;2022-09-09T08:40:05;5.68;;;1.95;;
58974;SDS011;44751;52.236;5.178;2022-09-09T08:42:55;8.18;;;2.30;;
58974;SDS011;44751;52.236;5.178;2022-09-09T08:45:37;8.77;;;2.08;;
58974;SDS011;44751;52.236;5.178;2022-09-09T08:48:42;7.93;;;2.03;;
58974;SDS011;44751;52.236;5.178;2022-09-09T08:51:17;6.25;;;1.90;;
58974;SDS011;44751;52.236;5.178;2022-09-09T08:53:46;8.82;;;2.28;;
58974;SDS011;44751;52.236;5.178;2022-09-09T08:56:28;8.43;;;2.15;;
58974;SDS011;44751;52.236;5.178;2022-09-09T08:58:59;6.72;;;1.90;;
58974;SDS011;44751;52.236;5.178;2022-09-09T09:01:32;7.18;;;2.00;;
58974;SDS011;44751;52.236;5.178;2022-09-09T09:04:17;9.82;;;2.72;;
58974;SDS011;44751;52.236;5.178;2022-09-09T09:09:52;5.82;;;1.95;;
58974;SDS011;44751;52.236;5.178;2022-09-09T09:12:38;9.75;;;2.33;;
58974;SDS011;44751;52.236;5.178;2022-09-09T09:15:24;6.60;;;2.17;;
58974;SDS011;44751;52.236;5.178;2022-09-09T09:17:53;5.38;;;2.15;;
58974;SDS011;44751;52.236;5.178;2022-09-09T09:21:10;6.85;;;1.95;;
58974;SDS011;44751;52.236;5.178;2022-09-09T09:23:25;7.38;;;2.17;;
58974;SDS011;44751;52.236;5.178;2022-09-09T09:26:05;5.88;;;2.10;;
58974;SDS011;44751;52.236;5.178;2022-09-09T09:28:46;6.90;;;2.00;;
58974;SDS011;44751;52.236;5.178;2022-09-09T09:31:12;6.40;;;2.08;;
58974;SDS011;44751;52.236;5.178;2022-09-09T09:33:45;6.32;;;2.55;;
58974;SDS011;44751;52.236;5.178;2022-09-09T09:36:15;8.65;;;2.38;;
58974;SDS011;44751;52.236;5.178;2022-09-09T09:41:53;9.32;;;2.30;;
58974;SDS011;44751;52.236;5.178;2022-09-09T09:44:29;8.70;;;2.35;;
58974;SDS011;44751;52.236;5.178;2022-09-09T09:47:16;6.68;;;1.90;;
58974;SDS011;44751;52.236;5.178;2022-09-09T09:49:55;7.68;;;2.67;;
58974;SDS011;44751;52.236;5.178;2022-09-09T09:52:31;6.30;;;1.88;;
58974;SDS011;44751;52.236;5.178;2022-09-09T09:55:11;6.75;;;2.35;;
58974;SDS011;44751;52.236;5.178;2022-09-09T09:57:46;8.75;;;2.28;;
58974;SDS011;44751;52.236;5.178;2022-09-09T12:14:04;7.30;;;2.30;;
58974;SDS011;44751;52.236;5.178;2022-09-09T16:27:37;3.05;;;1.58;;
58974;SDS011;44751;52.236;5.178;2022-09-09T16:30:03;5.55;;;1.50;;
58974;SDS011;44751;52.236;5.178;2022-09-09T16:32:31;4.70;;;1.35;;
58974;SDS011;44751;52.236;5.178;2022-09-09T16:35:06;4.50;;;1.50;;
58974;SDS011;44751;52.236;5.178;2022-09-09T16:40:50;2.30;;;1.07;;
58974;SDS011;44751;52.236;5.178;2022-09-09T16:43:24;3.72;;;1.10;;
58974;SDS011;44751;52.236;5.178;2022-09-09T16:45:58;5.18;;;1.55;;
58974;SDS011;44751;52.236;5.178;2022-09-09T16:49:22;4.25;;;1.45;;
58974;SDS011;44751;52.236;5.178;2022-09-09T16:51:49;2.85;;;1.50;;
58974;SDS011;44751;52.236;5.178;2022-09-09T16:54:18;4.07;;;1.85;;
58974;SDS011;44751;52.236;5.178;2022-09-09T16:56:47;2.67;;;1.38;;
58974;SDS011;44751;52.236;5.178;2022-09-09T16:59:18;4.15;;;1.70;;
58974;SDS011;44751;52.236;5.178;2022-09-09T17:02:03;5.15;;;1.80;;
58974;SDS011;44751;52.236;5.178;2022-09-09T17:31:58;6.72;;;2.70;;
58974;SDS011;44751;52.236;5.178;2022-09-09T17:34:39;12.18;;;3.47;;
58974;SDS011;44751;52.236;5.178;2022-09-09T17:37:11;6.75;;;3.25;;
58974;SDS011;44751;52.236;5.178;2022-09-09T17:39:43;8.38;;;3.55;;
58974;SDS011;44751;52.236;5.178;2022-09-09T17:42:10;7.50;;;3.50;;
58974;SDS011;44751;52.236;5.178;2022-09-09T17:44:36;5.15;;;3.60;;
58974;SDS011;44751;52.236;5.178;2022-09-09T17:47:13;8.57;;;3.55;;
58974;SDS011;44751;52.236;5.178;2022-09-09T17:49:56;6.22;;;3.75;;
58974;SDS011;44751;52.236;5.178;2022-09-09T17:52:41;7.18;;;3.60;;
58974;SDS011;44751;52.236;5.178;2022-09-09T17:55:07;8.45;;;3.88;;
58974;SDS011;44751;52.236;5.178;2022-09-09T17:57:35;8.80;;;3.80;;
58974;SDS011;44751;52.236;5.178;2022-09-09T18:00:01;9.57;;;3.60;;
58974;SDS011;44751;52.236;5.178;2022-09-09T18:02:31;9.27;;;3.85;;
58974;SDS011;44751;52.236;5.178;2022-09-09T18:07:51;7.15;;;3.90;;
58974;SDS011;44751;52.236;5.178;2022-09-09T18:10:17;6.35;;;3.55;;
58974;SDS011;44751;52.236;5.178;2022-09-09T18:12:44;10.20;;;5.05;;
58974;SDS011;44751;52.236;5.178;2022-09-09T18:15:11;7.13;;;3.95;;
58974;SDS011;44751;52.236;5.178;2022-09-09T18:17:37;7.32;;;4.55;;
58974;SDS011;44751;52.236;5.178;2022-09-09T18:20:08;7.95;;;4.38;;
58974;SDS011;44751;52.236;5.178;2022-09-09T18:25:08;6.55;;;4.35;;
58974;SDS011;44751;52.236;5.178;2022-09-09T18:27:37;8.05;;;3.85;;
58974;SDS011;44751;52.236;5.178;2022-09-09T18:30:04;7.78;;;4.63;;
58974;SDS011;44751;52.236;5.178;2022-09-09T18:32:31;6.55;;;4.00;;
58974;SDS011;44751;52.236;5.178;2022-09-09T18:34:58;8.73;;;4.40;;
58974;SDS011;44751;52.236;5.178;2022-09-09T18:37:35;7.63;;;4.25;;
58974;SDS011;44751;52.236;5.178;2022-09-09T18:40:02;10.27;;;4.30;;
58974;SDS011;44751;52.236;5.178;2022-09-09T18:42:29;8.23;;;4.45;;
58974;SDS011;44751;52.236;5.178;2022-09-09T18:44:56;6.82;;;4.50;;
58974;SDS011;44751;52.236;5.178;2022-09-09T18:47:23;5.78;;;4.03;;
58974;SDS011;44751;52.236;5.178;2022-09-09T18:49:55;7.05;;;4.43;;
58974;SDS011;44751;52.236;5.178;2022-09-09T18:52:22;6.23;;;4.10;;
58974;SDS011;44751;52.236;5.178;2022-09-09T18:54:49;7.78;;;3.88;;
58974;SDS011;44751;52.236;5.178;2022-09-09T18:57:16;6.95;;;4.18;;
58974;SDS011;44751;52.236;5.178;2022-09-09T18:59:43;7.78;;;4.10;;
58974;SDS011;44751;52.236;5.178;2022-09-09T19:02:14;6.93;;;4.30;;
58974;SDS011;44751;52.236;5.178;2022-09-09T19:04:40;7.32;;;4.43;;
58974;SDS011;44751;52.236;5.178;2022-09-09T19:07:07;8.38;;;4.53;;
58974;SDS011;44751;52.236;5.178;2022-09-09T19:09:33;6.65;;;4.28;;
58974;SDS011;44751;52.236;5.178;2022-09-09T19:12:00;6.28;;;3.60;;
58974;SDS011;44751;52.236;5.178;2022-09-09T19:14:27;7.50;;;4.35;;
58974;SDS011;44751;52.236;5.178;2022-09-09T19:16:56;8.82;;;4.07;;
58974;SDS011;44751;52.236;5.178;2022-09-09T19:19:32;5.68;;;4.10;;
58974;SDS011;44751;52.236;5.178;2022-09-09T19:22:02;9.95;;;3.80;;
58974;SDS011;44751;52.236;5.178;2022-09-09T19:24:31;8.75;;;4.93;;
58974;SDS011;44751;52.236;5.178;2022-09-09T19:27:00;8.18;;;4.95;;
58974;SDS011;44751;52.236;5.178;2022-09-09T19:29:30;12.43;;;6.03;;
58974;SDS011;44751;52.236;5.178;2022-09-09T19:31:59;8.73;;;4.60;;
58974;SDS011;44751;52.236;5.178;2022-09-09T19:34:29;7.88;;;4.57;;
58974;SDS011;44751;52.236;5.178;2022-09-09T19:37:05;6.32;;;4.13;;
58974;SDS011;44751;52.236;5.178;2022-09-09T19:39:31;7.00;;;3.70;;
58974;SDS011;44751;52.236;5.178;2022-09-09T19:41:58;10.25;;;4.40;;
58974;SDS011;44751;52.236;5.178;2022-09-09T19:44:24;7.15;;;3.78;;
58974;SDS011;44751;52.236;5.178;2022-09-09T19:46:54;5.72;;;3.60;;
58974;SDS011;44751;52.236;5.178;2022-09-09T19:49:21;8.60;;;3.92;;
58974;SDS011;44751;52.236;5.178;2022-09-09T19:51:47;8.55;;;4.57;;
58974;SDS011;44751;52.236;5.178;2022-09-09T19:54:22;6.50;;;3.95;;
58974;SDS011;44751;52.236;5.178;2022-09-09T19:56:48;6.43;;;3.97;;
58974;SDS011;44751;52.236;5.178;2022-09-09T19:59:15;6.88;;;3.60;;
58974;SDS011;44751;52.236;5.178;2022-09-09T20:01:42;8.43;;;4.28;;
58974;SDS011;44751;52.236;5.178;2022-09-09T20:04:11;7.68;;;4.15;;
58974;SDS011;44751;52.236;5.178;2022-09-09T20:06:39;5.95;;;4.10;;
58974;SDS011;44751;52.236;5.178;2022-09-09T20:09:09;9.38;;;4.43;;
58974;SDS011;44751;52.236;5.178;2022-09-09T20:11:39;8.82;;;4.60;;
58974;SDS011;44751;52.236;5.178;2022-09-09T20:14:07;11.75;;;4.57;;
58974;SDS011;44751;52.236;5.178;2022-09-09T20:16:33;9.77;;;4.68;;
58974;SDS011;44751;52.236;5.178;2022-09-09T20:19:03;8.07;;;4.43;;
58974;SDS011;44751;52.236;5.178;2022-09-09T20:24:06;6.70;;;4.68;;
58974;SDS011;44751;52.236;5.178;2022-09-09T20:26:34;7.75;;;4.82;;
58974;SDS011;44751;52.236;5.178;2022-09-09T20:29:04;5.72;;;3.67;;
58974;SDS011;44751;52.236;5.178;2022-09-09T20:31:33;8.50;;;4.55;;
58974;SDS011;44751;52.236;5.178;2022-09-09T20:34:04;7.35;;;4.43;;
58974;SDS011;44751;52.236;5.178;2022-09-09T20:36:40;8.18;;;4.30;;
58974;SDS011;44751;52.236;5.178;2022-09-09T20:39:09;7.50;;;4.00;;
58974;SDS011;44751;52.236;5.178;2022-09-09T20:41:39;6.78;;;4.05;;
58974;SDS011;44751;52.236;5.178;2022-09-09T20:44:09;8.55;;;4.15;;
58974;SDS011;44751;52.236;5.178;2022-09-09T20:46:42;7.07;;;4.03;;
58974;SDS011;44751;52.236;5.178;2022-09-09T20:49:13;10.60;;;3.70;;
58974;SDS011;44751;52.236;5.178;2022-09-09T20:51:46;7.75;;;4.00;;
58974;SDS011;44751;52.236;5.178;2022-09-09T20:54:16;5.47;;;3.47;;
58974;SDS011;44751;52.236;5.178;2022-09-09T20:56:44;7.07;;;4.00;;
58974;SDS011;44751;52.236;5.178;2022-09-09T20:59:16;9.15;;;4.15;;
58974;SDS011;44751;52.236;5.178;2022-09-09T21:01:44;8.68;;;3.65;;
58974;SDS011;44751;52.236;5.178;2022-09-09T21:04:11;6.88;;;3.60;;
58974;SDS011;44751;52.236;5.178;2022-09-09T21:06:38;8.35;;;4.00;;
58974;SDS011;44751;52.236;5.178;2022-09-09T21:09:05;8.40;;;3.58;;
58974;SDS011;44751;52.236;5.178;2022-09-09T21:11:31;8.02;;;3.75;;
58974;SDS011;44751;52.236;5.178;2022-09-09T21:13:58;7.45;;;3.78;;
58974;SDS011;44751;52.236;5.178;2022-09-09T21:16:28;7.25;;;3.97;;
58974;SDS011;44751;52.236;5.178;2022-09-09T21:18:55;9.88;;;4.40;;
58974;SDS011;44751;52.236;5.178;2022-09-09T21:21:25;7.75;;;4.28;;
58974;SDS011;44751;52.236;5.178;2022-09-09T21:23:55;32.10;;;15.47;;
58974;SDS011;44751;52.236;5.178;2022-09-09T21:26:24;10.20;;;5.82;;
58974;SDS011;44751;52.236;5.178;2022-09-09T21:28:51;7.60;;;4.38;;
58974;SDS011;44751;52.236;5.178;2022-09-09T21:31:19;7.22;;;4.15;;
58974;SDS011;44751;52.236;5.178;2022-09-09T21:33:46;7.65;;;4.20;;
58974;SDS011;44751;52.236;5.178;2022-09-09T21:36:13;10.35;;;4.53;;
58974;SDS011;44751;52.236;5.178;2022-09-09T21:38:40;9.63;;;4.18;;
58974;SDS011;44751;52.236;5.178;2022-09-09T21:43:41;9.77;;;5.15;;
58974;SDS011;44751;52.236;5.178;2022-09-09T21:46:09;7.30;;;4.50;;
58974;SDS011;44751;52.236;5.178;2022-09-09T21:48:41;7.13;;;4.15;;
58974;SDS011;44751;52.236;5.178;2022-09-09T21:51:09;8.00;;;5.13;;
58974;SDS011;44751;52.236;5.178;2022-09-09T21:53:54;7.63;;;4.57;;
58974;SDS011;44751;52.236;5.178;2022-09-09T21:56:21;6.30;;;4.32;;
58974;SDS011;44751;52.236;5.178;2022-09-09T21:58:52;7.90;;;5.13;;
58974;SDS011;44751;52.236;5.178;2022-09-09T22:01:19;9.95;;;5.43;;
58974;SDS011;44751;52.236;5.178;2022-09-09T22:03:46;8.88;;;5.85;;
58974;SDS011;44751;52.236;5.178;2022-09-09T22:06:14;8.32;;;5.90;;
58974;SDS011;44751;52.236;5.178;2022-09-09T22:08:47;8.13;;;5.78;;
58974;SDS011;44751;52.236;5.178;2022-09-09T22:11:15;9.85;;;5.22;;
58974;SDS011;44751;52.236;5.178;2022-09-09T22:13:52;8.43;;;5.47;;
58974;SDS011;44751;52.236;5.178;2022-09-09T22:16:20;9.65;;;6.40;;
58974;SDS011;44751;52.236;5.178;2022-09-09T22:18:51;8.38;;;5.93;;
58974;SDS011;44751;52.236;5.178;2022-09-09T22:21:19;24.15;;;6.47;;
58974;SDS011;44751;52.236;5.178;2022-09-09T22:23:49;11.95;;;6.45;;
58974;SDS011;44751;52.236;5.178;2022-09-09T22:26:36;9.73;;;6.68;;
58974;SDS011;44751;52.236;5.178;2022-09-09T22:29:06;10.25;;;6.85;;
58974;SDS011;44751;52.236;5.178;2022-09-09T22:31:33;12.52;;;8.00;;
58974;SDS011;44751;52.236;5.178;2022-09-09T22:34:01;14.32;;;8.32;;
58974;SDS011;44751;52.236;5.178;2022-09-09T22:36:27;11.43;;;8.50;;
58974;SDS011;44751;52.236;5.178;2022-09-09T22:38:58;11.80;;;8.27;;
58974;SDS011;44751;52.236;5.178;2022-09-09T22:41:30;16.60;;;8.98;;
58974;SDS011;44751;52.236;5.178;2022-09-09T22:43:57;10.88;;;8.02;;
58974;SDS011;44751;52.236;5.178;2022-09-09T22:46:24;11.27;;;8.38;;
58974;SDS011;44751;52.236;5.178;2022-09-09T22:48:50;12.10;;;8.80;;
58974;SDS011;44751;52.236;5.178;2022-09-09T22:51:17;11.18;;;8.65;;
58974;SDS011;44751;52.236;5.178;2022-09-09T22:53:58;11.93;;;8.10;;
58974;SDS011;44751;52.236;5.178;2022-09-09T22:56:25;13.85;;;9.23;;
58974;SDS011;44751;52.236;5.178;2022-09-09T22:58:54;14.15;;;9.68;;
58974;SDS011;44751;52.236;5.178;2022-09-09T23:01:24;12.65;;;9.77;;
58974;SDS011;44751;52.236;5.178;2022-09-09T23:03:53;14.25;;;10.05;;
58974;SDS011;44751;52.236;5.178;2022-09-09T23:06:23;16.88;;;10.77;;
58974;SDS011;44751;52.236;5.178;2022-09-09T23:11:37;16.10;;;11.20;;
58974;SDS011;44751;52.236;5.178;2022-09-09T23:14:05;16.77;;;11.40;;
58974;SDS011;44751;52.236;5.178;2022-09-09T23:16:37;19.17;;;12.32;;
58974;SDS011;44751;52.236;5.178;2022-09-09T23:19:06;14.02;;;11.50;;
58974;SDS011;44751;52.236;5.178;2022-09-09T23:21:35;18.08;;;13.15;;
58974;SDS011;44751;52.236;5.178;2022-09-09T23:24:17;18.88;;;13.85;;
58974;SDS011;44751;52.236;5.178;2022-09-09T23:26:43;16.63;;;12.98;;
58974;SDS011;44751;52.236;5.178;2022-09-09T23:29:14;16.88;;;13.73;;
58974;SDS011;44751;52.236;5.178;2022-09-09T23:31:41;20.45;;;13.75;;
58974;SDS011;44751;52.236;5.178;2022-09-09T23:34:13;16.98;;;13.45;;
58974;SDS011;44751;52.236;5.178;2022-09-09T23:36:40;23.38;;;14.05;;
58974;SDS011;44751;52.236;5.178;2022-09-09T23:39:15;18.55;;;14.55;;
58974;SDS011;44751;52.236;5.178;2022-09-09T23:41:42;18.77;;;15.15;;